sensor_id;sensor_type;location;lat;lon;timestamp;pressure;altitude;pressure_sealevel;temperature
11792;BMP180;5953;52.372;9.918;2023-02-28T00:01:11;102328.00;;;6.90
11792;BMP180;5953;52.372;9.918;2023-02-28T00:03:39;102334.00;;;6.90
11792;BMP180;5953;52.372;9.918;2023-02-28T00:06:08;102332.00;;;6.90
11792;BMP180;5953;52.372;9.918;2023-02-28T00:08:37;102337.00;;;6.80
11792;BMP180;5953;52.372;9.918;2023-02-28T00:11:06;102318.00;;;7.00
11792;BMP180;5953;52.372;9.918;2023-02-28T00:13:38;102330.00;;;6.80
11792;BMP180;5953;52.372;9.918;2023-02-28T00:16:08;102333.00;;;6.80
11792;BMP180;5953;52.372;9.918;2023-02-28T00:18:37;102311.00;;;6.90
11792;BMP180;5953;52.372;9.918;2023-02-28T00:21:05;102338.00;;;6.80
11792;BMP180;5953;52.372;9.918;2023-02-28T00:23:34;102333.00;;;6.90
11792;BMP180;5953;52.372;9.918;2023-02-28T00:26:02;102320.00;;;6.80
11792;BMP180;5953;52.372;9.918;2023-02-28T00:28:30;102269.00;;;6.90
11792;BMP180;5953;52.372;9.918;2023-02-28T00:30:59;102331.00;;;6.90
11792;BMP180;5953;52.372;9.918;2023-02-28T00:33:28;102305.00;;;6.80
11792;BMP180;5953;52.372;9.918;2023-02-28T00:36:07;102317.00;;;6.90
11792;BMP180;5953;52.372;9.918;2023-02-28T00:38:36;102321.00;;;6.90
11792;BMP180;5953;52.372;9.918;2023-02-28T00:41:04;102284.00;;;6.90
11792;BMP180;5953;52.372;9.918;2023-02-28T00:43:33;102338.00;;;6.80
11792;BMP180;5953;52.372;9.918;2023-02-28T00:46:03;102335.00;;;6.90
11792;BMP180;5953;52.372;9.918;2023-02-28T00:48:31;102321.00;;;6.80
11792;BMP180;5953;52.372;9.918;2023-02-28T00:50:59;102302.00;;;6.70
11792;BMP180;5953;52.372;9.918;2023-02-28T00:53:27;102273.00;;;6.70
11792;BMP180;5953;52.372;9.918;2023-02-28T00:55:55;102328.00;;;6.70
11792;BMP180;5953;52.372;9.918;2023-02-28T00:58:25;102327.00;;;6.60
11792;BMP180;5953;52.372;9.918;2023-02-28T01:00:52;102322.00;;;6.60
11792;BMP180;5953;52.372;9.918;2023-02-28T01:03:22;102315.00;;;6.50
11792;BMP180;5953;52.372;9.918;2023-02-28T01:05:51;102324.00;;;6.40
11792;BMP180;5953;52.372;9.918;2023-02-28T01:08:21;102315.00;;;6.50
11792;BMP180;5953;52.372;9.918;2023-02-28T01:10:49;102294.00;;;6.30
11792;BMP180;5953;52.372;9.918;2023-02-28T01:13:17;102332.00;;;6.30
11792;BMP180;5953;52.372;9.918;2023-02-28T01:15:48;102330.00;;;6.20
11792;BMP180;5953;52.372;9.918;2023-02-28T01:18:18;102321.00;;;6.30
11792;BMP180;5953;52.372;9.918;2023-02-28T01:20:48;102331.00;;;6.40
11792;BMP180;5953;52.372;9.918;2023-02-28T01:23:18;102325.00;;;6.20
11792;BMP180;5953;52.372;9.918;2023-02-28T01:25:48;102295.00;;;6.10
11792;BMP180;5953;52.372;9.918;2023-02-28T01:28:16;102322.00;;;6.00
11792;BMP180;5953;52.372;9.918;2023-02-28T01:30:47;102326.00;;;6.00
11792;BMP180;5953;52.372;9.918;2023-02-28T01:33:15;102294.00;;;5.90
11792;BMP180;5953;52.372;9.918;2023-02-28T01:35:43;102327.00;;;5.90
11792;BMP180;5953;52.372;9.918;2023-02-28T01:38:13;102307.00;;;5.80
11792;BMP180;5953;52.372;9.918;2023-02-28T01:40:48;102310.00;;;5.80
11792;BMP180;5953;52.372;9.918;2023-02-28T01:43:21;102288.00;;;5.80
11792;BMP180;5953;52.372;9.918;2023-02-28T01:45:51;102282.00;;;5.90
11792;BMP180;5953;52.372;9.918;2023-02-28T01:48:22;102306.00;;;5.80
11792;BMP180;5953;52.372;9.918;2023-02-28T01:50:51;102308.00;;;5.80
11792;BMP180;5953;52.372;9.918;2023-02-28T01:53:24;102318.00;;;5.70
11792;BMP180;5953;52.372;9.918;2023-02-28T01:55:54;102319.00;;;5.70
11792;BMP180;5953;52.372;9.918;2023-02-28T01:58:22;102300.00;;;5.60
11792;BMP180;5953;52.372;9.918;2023-02-28T02:00:51;102309.00;;;5.60
11792;BMP180;5953;52.372;9.918;2023-02-28T02:03:20;102267.00;;;5.50
11792;BMP180;5953;52.372;9.918;2023-02-28T02:05:51;102322.00;;;5.50
11792;BMP180;5953;52.372;9.918;2023-02-28T02:08:29;102304.00;;;5.50
11792;BMP180;5953;52.372;9.918;2023-02-28T02:10:58;102310.00;;;5.50
11792;BMP180;5953;52.372;9.918;2023-02-28T02:13:42;102307.00;;;5.40
11792;BMP180;5953;52.372;9.918;2023-02-28T02:16:23;102314.00;;;5.40
11792;BMP180;5953;52.372;9.918;2023-02-28T02:19:01;102300.00;;;5.40
11792;BMP180;5953;52.372;9.918;2023-02-28T02:21:47;102308.00;;;5.30
11792;BMP180;5953;52.372;9.918;2023-02-28T02:27:38;102292.00;;;5.30
11792;BMP180;5953;52.372;9.918;2023-02-28T02:36:17;102295.00;;;5.10
11792;BMP180;5953;52.372;9.918;2023-02-28T02:38:50;102304.00;;;5.10
11792;BMP180;5953;52.372;9.918;2023-02-28T02:41:24;102257.00;;;5.10
11792;BMP180;5953;52.372;9.918;2023-02-28T02:44:01;102294.00;;;5.10
11792;BMP180;5953;52.372;9.918;2023-02-28T02:46:32;102301.00;;;5.00
11792;BMP180;5953;52.372;9.918;2023-02-28T02:49:05;102281.00;;;4.80
11792;BMP180;5953;52.372;9.918;2023-02-28T02:51:36;102263.00;;;4.90
11792;BMP180;5953;52.372;9.918;2023-02-28T02:54:09;102301.00;;;4.60
11792;BMP180;5953;52.372;9.918;2023-02-28T02:56:41;102301.00;;;4.80
11792;BMP180;5953;52.372;9.918;2023-02-28T02:59:12;102273.00;;;4.70
11792;BMP180;5953;52.372;9.918;2023-02-28T03:01:41;102250.00;;;4.70
11792;BMP180;5953;52.372;9.918;2023-02-28T03:04:11;102299.00;;;4.80
11792;BMP180;5953;52.372;9.918;2023-02-28T03:06:42;102297.00;;;4.80
11792;BMP180;5953;52.372;9.918;2023-02-28T03:09:10;102294.00;;;4.80
11792;BMP180;5953;52.372;9.918;2023-02-28T03:11:39;102293.00;;;4.80
11792;BMP180;5953;52.372;9.918;2023-02-28T03:14:23;102280.00;;;4.60
11792;BMP180;5953;52.372;9.918;2023-02-28T03:20:17;102287.00;;;4.50
11792;BMP180;5953;52.372;9.918;2023-02-28T03:22:57;102291.00;;;4.40
11792;BMP180;5953;52.372;9.918;2023-02-28T03:25:31;102264.00;;;4.50
11792;BMP180;5953;52.372;9.918;2023-02-28T03:28:07;102281.00;;;4.50
11792;BMP180;5953;52.372;9.918;2023-02-28T03:30:41;102291.00;;;4.50
11792;BMP180;5953;52.372;9.918;2023-02-28T03:33:12;102276.00;;;4.40
11792;BMP180;5953;52.372;9.918;2023-02-28T03:35:45;102277.00;;;4.50
11792;BMP180;5953;52.372;9.918;2023-02-28T03:38:19;102291.00;;;4.50
11792;BMP180;5953;52.372;9.918;2023-02-28T03:40:50;102291.00;;;4.70
11792;BMP180;5953;52.372;9.918;2023-02-28T03:43:22;102286.00;;;4.50
11792;BMP180;5953;52.372;9.918;2023-02-28T03:45:54;102281.00;;;4.40
11792;BMP180;5953;52.372;9.918;2023-02-28T03:48:26;102293.00;;;4.40
11792;BMP180;5953;52.372;9.918;2023-02-28T03:50:58;102298.00;;;4.40
11792;BMP180;5953;52.372;9.918;2023-02-28T03:53:31;102285.00;;;4.40
11792;BMP180;5953;52.372;9.918;2023-02-28T03:56:04;102270.00;;;4.40
11792;BMP180;5953;52.372;9.918;2023-02-28T03:58:37;102283.00;;;4.30
11792;BMP180;5953;52.372;9.918;2023-02-28T04:01:11;102292.00;;;4.30
11792;BMP180;5953;52.372;9.918;2023-02-28T04:03:40;102286.00;;;4.20
11792;BMP180;5953;52.372;9.918;2023-02-28T04:06:16;102285.00;;;4.20
11792;BMP180;5953;52.372;9.918;2023-02-28T04:08:47;102286.00;;;4.20
11792;BMP180;5953;52.372;9.918;2023-02-28T04:11:20;102294.00;;;4.10
11792;BMP180;5953;52.372;9.918;2023-02-28T04:13:48;102284.00;;;3.90
11792;BMP180;5953;52.372;9.918;2023-02-28T04:16:16;102283.00;;;4.10
11792;BMP180;5953;52.372;9.918;2023-02-28T04:19:00;102300.00;;;4.00
11792;BMP180;5953;52.372;9.918;2023-02-28T04:21:30;102290.00;;;4.00
11792;BMP180;5953;52.372;9.918;2023-02-28T04:24:01;102298.00;;;4.10
11792;BMP180;5953;52.372;9.918;2023-02-28T04:26:29;102283.00;;;4.00
11792;BMP180;5953;52.372;9.918;2023-02-28T04:28:57;102297.00;;;3.90
11792;BMP180;5953;52.372;9.918;2023-02-28T04:31:25;102284.00;;;3.80
11792;BMP180;5953;52.372;9.918;2023-02-28T04:33:54;102300.00;;;3.90
11792;BMP180;5953;52.372;9.918;2023-02-28T04:36:22;102296.00;;;3.80
11792;BMP180;5953;52.372;9.918;2023-02-28T04:38:51;102315.00;;;3.90
11792;BMP180;5953;52.372;9.918;2023-02-28T04:41:23;102306.00;;;3.80
11792;BMP180;5953;52.372;9.918;2023-02-28T04:43:51;102284.00;;;3.80
11792;BMP180;5953;52.372;9.918;2023-02-28T04:46:20;102269.00;;;3.70
11792;BMP180;5953;52.372;9.918;2023-02-28T04:48:48;102311.00;;;3.90
11792;BMP180;5953;52.372;9.918;2023-02-28T04:51:17;102297.00;;;3.80
11792;BMP180;5953;52.372;9.918;2023-02-28T04:53:46;102303.00;;;3.80
11792;BMP180;5953;52.372;9.918;2023-02-28T04:56:16;102304.00;;;3.80
11792;BMP180;5953;52.372;9.918;2023-02-28T04:58:46;102311.00;;;3.70
11792;BMP180;5953;52.372;9.918;2023-02-28T05:01:20;102284.00;;;3.60
11792;BMP180;5953;52.372;9.918;2023-02-28T05:03:49;102303.00;;;3.50
11792;BMP180;5953;52.372;9.918;2023-02-28T05:06:21;102324.00;;;3.60
11792;BMP180;5953;52.372;9.918;2023-02-28T05:09:02;102318.00;;;3.50
11792;BMP180;5953;52.372;9.918;2023-02-28T05:11:32;102325.00;;;2.70
11792;BMP180;5953;52.372;9.918;2023-02-28T05:14:05;102328.00;;;2.60
11792;BMP180;5953;52.372;9.918;2023-02-28T05:16:34;102312.00;;;3.00
11792;BMP180;5953;52.372;9.918;2023-02-28T05:19:02;102332.00;;;3.00
11792;BMP180;5953;52.372;9.918;2023-02-28T05:21:32;102335.00;;;2.90
11792;BMP180;5953;52.372;9.918;2023-02-28T05:24:01;102313.00;;;3.10
11792;BMP180;5953;52.372;9.918;2023-02-28T05:26:30;102334.00;;;3.20
11792;BMP180;5953;52.372;9.918;2023-02-28T05:28:58;102323.00;;;3.30
11792;BMP180;5953;52.372;9.918;2023-02-28T05:31:27;102328.00;;;3.30
11792;BMP180;5953;52.372;9.918;2023-02-28T05:33:55;102327.00;;;3.50
11792;BMP180;5953;52.372;9.918;2023-02-28T05:36:24;102316.00;;;3.60
11792;BMP180;5953;52.372;9.918;2023-02-28T05:38:51;102321.00;;;3.60
11792;BMP180;5953;52.372;9.918;2023-02-28T05:41:20;102281.00;;;3.70
11792;BMP180;5953;52.372;9.918;2023-02-28T05:43:48;102326.00;;;3.60
11792;BMP180;5953;52.372;9.918;2023-02-28T05:46:18;102331.00;;;3.60
11792;BMP180;5953;52.372;9.918;2023-02-28T05:48:48;102332.00;;;3.70
11792;BMP180;5953;52.372;9.918;2023-02-28T05:51:16;102314.00;;;3.70
11792;BMP180;5953;52.372;9.918;2023-02-28T05:53:44;102302.00;;;3.60
11792;BMP180;5953;52.372;9.918;2023-02-28T05:56:12;102328.00;;;3.70
11792;BMP180;5953;52.372;9.918;2023-02-28T05:58:40;102330.00;;;3.50
11792;BMP180;5953;52.372;9.918;2023-02-28T06:01:31;102337.00;;;3.50
11792;BMP180;5953;52.372;9.918;2023-02-28T06:04:02;102343.00;;;3.60
11792;BMP180;5953;52.372;9.918;2023-02-28T06:06:30;102330.00;;;3.60
11792;BMP180;5953;52.372;9.918;2023-02-28T06:09:03;102333.00;;;3.60
11792;BMP180;5953;52.372;9.918;2023-02-28T06:11:31;102327.00;;;3.50
11792;BMP180;5953;52.372;9.918;2023-02-28T06:14:00;102261.00;;;3.50
11792;BMP180;5953;52.372;9.918;2023-02-28T06:16:28;102334.00;;;3.20
11792;BMP180;5953;52.372;9.918;2023-02-28T06:18:58;102333.00;;;3.30
11792;BMP180;5953;52.372;9.918;2023-02-28T06:21:28;102333.00;;;3.30
11792;BMP180;5953;52.372;9.918;2023-02-28T06:23:57;102339.00;;;3.30
11792;BMP180;5953;52.372;9.918;2023-02-28T06:26:26;102314.00;;;3.40
11792;BMP180;5953;52.372;9.918;2023-02-28T06:28:54;102341.00;;;3.30
11792;BMP180;5953;52.372;9.918;2023-02-28T06:31:23;102339.00;;;2.90
11792;BMP180;5953;52.372;9.918;2023-02-28T06:33:52;102295.00;;;3.10
11792;BMP180;5953;52.372;9.918;2023-02-28T06:36:21;102347.00;;;3.00
11792;BMP180;5953;52.372;9.918;2023-02-28T06:38:50;102350.00;;;3.20
11792;BMP180;5953;52.372;9.918;2023-02-28T06:41:24;102354.00;;;3.20
11792;BMP180;5953;52.372;9.918;2023-02-28T06:43:52;102298.00;;;3.20
11792;BMP180;5953;52.372;9.918;2023-02-28T06:46:23;102356.00;;;3.20
11792;BMP180;5953;52.372;9.918;2023-02-28T06:48:51;102366.00;;;3.10
11792;BMP180;5953;52.372;9.918;2023-02-28T06:51:20;102377.00;;;3.20
11792;BMP180;5953;52.372;9.918;2023-02-28T06:53:50;102370.00;;;3.30
11792;BMP180;5953;52.372;9.918;2023-02-28T06:56:19;102347.00;;;3.20
11792;BMP180;5953;52.372;9.918;2023-02-28T06:58:48;102374.00;;;3.20
11792;BMP180;5953;52.372;9.918;2023-02-28T07:01:17;102370.00;;;3.20
11792;BMP180;5953;52.372;9.918;2023-02-28T07:03:46;102339.00;;;3.40
11792;BMP180;5953;52.372;9.918;2023-02-28T07:06:20;102333.00;;;3.50
11792;BMP180;5953;52.372;9.918;2023-02-28T07:08:50;102350.00;;;3.70
11792;BMP180;5953;52.372;9.918;2023-02-28T07:11:19;102393.00;;;3.90
11792;BMP180;5953;52.372;9.918;2023-02-28T07:13:50;102354.00;;;4.10
11792;BMP180;5953;52.372;9.918;2023-02-28T07:16:18;102392.00;;;4.20
11792;BMP180;5953;52.372;9.918;2023-02-28T07:18:46;102365.00;;;4.50
11792;BMP180;5953;52.372;9.918;2023-02-28T07:21:15;102390.00;;;4.60
11792;BMP180;5953;52.372;9.918;2023-02-28T07:23:43;102368.00;;;4.80
11792;BMP180;5953;52.372;9.918;2023-02-28T07:26:14;102365.00;;;5.00
11792;BMP180;5953;52.372;9.918;2023-02-28T07:28:44;102393.00;;;5.30
11792;BMP180;5953;52.372;9.918;2023-02-28T07:31:13;102393.00;;;5.60
11792;BMP180;5953;52.372;9.918;2023-02-28T07:33:42;102394.00;;;5.80
11792;BMP180;5953;52.372;9.918;2023-02-28T07:36:13;102402.00;;;6.00
11792;BMP180;5953;52.372;9.918;2023-02-28T07:38:42;102374.00;;;6.10
11792;BMP180;5953;52.372;9.918;2023-02-28T07:41:16;102393.00;;;6.30
11792;BMP180;5953;52.372;9.918;2023-02-28T07:43:45;102350.00;;;6.40
11792;BMP180;5953;52.372;9.918;2023-02-28T07:46:15;102389.00;;;6.50
11792;BMP180;5953;52.372;9.918;2023-02-28T07:48:52;102360.00;;;6.60
11792;BMP180;5953;52.372;9.918;2023-02-28T07:51:26;102374.00;;;6.70
11792;BMP180;5953;52.372;9.918;2023-02-28T07:53:55;102366.00;;;6.80
11792;BMP180;5953;52.372;9.918;2023-02-28T07:56:25;102385.00;;;6.90
11792;BMP180;5953;52.372;9.918;2023-02-28T07:58:54;102387.00;;;7.00
11792;BMP180;5953;52.372;9.918;2023-02-28T08:01:22;102334.00;;;6.80
11792;BMP180;5953;52.372;9.918;2023-02-28T08:03:50;102393.00;;;6.70
11792;BMP180;5953;52.372;9.918;2023-02-28T08:06:21;102327.00;;;6.60
11792;BMP180;5953;52.372;9.918;2023-02-28T08:08:50;102343.00;;;6.90
11792;BMP180;5953;52.372;9.918;2023-02-28T08:11:19;102377.00;;;6.80
11792;BMP180;5953;52.372;9.918;2023-02-28T08:13:49;102385.00;;;7.00
11792;BMP180;5953;52.372;9.918;2023-02-28T08:16:17;102400.00;;;7.30
11792;BMP180;5953;52.372;9.918;2023-02-28T08:18:49;102355.00;;;7.30
11792;BMP180;5953;52.372;9.918;2023-02-28T08:21:18;102390.00;;;7.60
11792;BMP180;5953;52.372;9.918;2023-02-28T08:23:47;102378.00;;;7.80
11792;BMP180;5953;52.372;9.918;2023-02-28T08:26:15;102395.00;;;7.80
11792;BMP180;5953;52.372;9.918;2023-02-28T08:28:44;102404.00;;;8.10
11792;BMP180;5953;52.372;9.918;2023-02-28T08:31:15;102401.00;;;8.20
11792;BMP180;5953;52.372;9.918;2023-02-28T08:33:43;102409.00;;;8.20
11792;BMP180;5953;52.372;9.918;2023-02-28T08:36:12;102399.00;;;8.50
11792;BMP180;5953;52.372;9.918;2023-02-28T08:38:42;102405.00;;;8.50
11792;BMP180;5953;52.372;9.918;2023-02-28T08:41:11;102397.00;;;8.60
11792;BMP180;5953;52.372;9.918;2023-02-28T08:43:40;102412.00;;;8.60
11792;BMP180;5953;52.372;9.918;2023-02-28T08:46:11;102350.00;;;8.80
11792;BMP180;5953;52.372;9.918;2023-02-28T08:48:41;102417.00;;;9.00
11792;BMP180;5953;52.372;9.918;2023-02-28T08:51:11;102408.00;;;9.00
11792;BMP180;5953;52.372;9.918;2023-02-28T08:53:40;102376.00;;;9.10
11792;BMP180;5953;52.372;9.918;2023-02-28T08:56:10;102367.00;;;9.10
11792;BMP180;5953;52.372;9.918;2023-02-28T08:58:39;102402.00;;;9.20
11792;BMP180;5953;52.372;9.918;2023-02-28T09:01:08;102402.00;;;9.30
11792;BMP180;5953;52.372;9.918;2023-02-28T09:03:37;102390.00;;;9.20
11792;BMP180;5953;52.372;9.918;2023-02-28T09:06:08;102365.00;;;9.30
11792;BMP180;5953;52.372;9.918;2023-02-28T09:08:37;102381.00;;;9.20
11792;BMP180;5953;52.372;9.918;2023-02-28T09:11:06;102403.00;;;9.30
11792;BMP180;5953;52.372;9.918;2023-02-28T09:13:35;102368.00;;;9.50
11792;BMP180;5953;52.372;9.918;2023-02-28T09:18:52;102417.00;;;9.50
11792;BMP180;5953;52.372;9.918;2023-02-28T09:21:25;102425.00;;;9.30
11792;BMP180;5953;52.372;9.918;2023-02-28T09:23:55;102407.00;;;9.40
11792;BMP180;5953;52.372;9.918;2023-02-28T09:26:25;102351.00;;;9.40
11792;BMP180;5953;52.372;9.918;2023-02-28T09:29:04;102387.00;;;9.70
11792;BMP180;5953;52.372;9.918;2023-02-28T09:31:33;102416.00;;;9.70
11792;BMP180;5953;52.372;9.918;2023-02-28T09:34:05;102419.00;;;10.00
11792;BMP180;5953;52.372;9.918;2023-02-28T09:36:38;102370.00;;;9.90
11792;BMP180;5953;52.372;9.918;2023-02-28T09:39:15;102417.00;;;10.20
11792;BMP180;5953;52.372;9.918;2023-02-28T09:41:47;102357.00;;;10.10
11792;BMP180;5953;52.372;9.918;2023-02-28T09:44:26;102424.00;;;10.20
11792;BMP180;5953;52.372;9.918;2023-02-28T09:47:00;102369.00;;;10.20
11792;BMP180;5953;52.372;9.918;2023-02-28T09:49:34;102371.00;;;10.40
11792;BMP180;5953;52.372;9.918;2023-02-28T09:52:10;102427.00;;;10.60
11792;BMP180;5953;52.372;9.918;2023-02-28T09:54:38;102425.00;;;10.40
11792;BMP180;5953;52.372;9.918;2023-02-28T09:57:08;102398.00;;;10.50
11792;BMP180;5953;52.372;9.918;2023-02-28T09:59:54;102397.00;;;10.60
11792;BMP180;5953;52.372;9.918;2023-02-28T10:02:46;102417.00;;;10.50
11792;BMP180;5953;52.372;9.918;2023-02-28T10:05:24;102405.00;;;10.60
11792;BMP180;5953;52.372;9.918;2023-02-28T10:08:03;102391.00;;;10.70
11792;BMP180;5953;52.372;9.918;2023-02-28T10:10:37;102410.00;;;10.70
11792;BMP180;5953;52.372;9.918;2023-02-28T10:13:14;102408.00;;;10.70
11792;BMP180;5953;52.372;9.918;2023-02-28T10:15:46;102406.00;;;10.80
11792;BMP180;5953;52.372;9.918;2023-02-28T10:18:21;102359.00;;;10.70
11792;BMP180;5953;52.372;9.918;2023-02-28T10:20:51;102401.00;;;10.90
11792;BMP180;5953;52.372;9.918;2023-02-28T10:23:26;102394.00;;;10.90
11792;BMP180;5953;52.372;9.918;2023-02-28T10:25:58;102405.00;;;10.90
11792;BMP180;5953;52.372;9.918;2023-02-28T10:28:28;102397.00;;;10.70
11792;BMP180;5953;52.372;9.918;2023-02-28T10:30:58;102374.00;;;10.70
11792;BMP180;5953;52.372;9.918;2023-02-28T10:33:29;102412.00;;;10.60
11792;BMP180;5953;52.372;9.918;2023-02-28T10:35:58;102409.00;;;10.60
11792;BMP180;5953;52.372;9.918;2023-02-28T10:38:33;102403.00;;;10.70
11792;BMP180;5953;52.372;9.918;2023-02-28T10:41:05;102375.00;;;10.60
11792;BMP180;5953;52.372;9.918;2023-02-28T10:43:34;102410.00;;;10.40
11792;BMP180;5953;52.372;9.918;2023-02-28T10:46:05;102408.00;;;10.60
11792;BMP180;5953;52.372;9.918;2023-02-28T10:48:40;102424.00;;;10.70
11792;BMP180;5953;52.372;9.918;2023-02-28T10:51:11;102404.00;;;10.80
11792;BMP180;5953;52.372;9.918;2023-02-28T10:53:47;102389.00;;;10.90
11792;BMP180;5953;52.372;9.918;2023-02-28T10:56:29;102353.00;;;11.10
11792;BMP180;5953;52.372;9.918;2023-02-28T10:59:03;102382.00;;;10.90
11792;BMP180;5953;52.372;9.918;2023-02-28T11:01:50;102388.00;;;10.80
11792;BMP180;5953;52.372;9.918;2023-02-28T11:04:33;102410.00;;;10.60
11792;BMP180;5953;52.372;9.918;2023-02-28T11:07:06;102365.00;;;10.60
11792;BMP180;5953;52.372;9.918;2023-02-28T11:09:50;102416.00;;;10.40
11792;BMP180;5953;52.372;9.918;2023-02-28T11:12:22;102392.00;;;10.20
11792;BMP180;5953;52.372;9.918;2023-02-28T11:14:53;102353.00;;;10.30
11792;BMP180;5953;52.372;9.918;2023-02-28T11:17:24;102354.00;;;10.40
11792;BMP180;5953;52.372;9.918;2023-02-28T11:19:55;102360.00;;;10.40
11792;BMP180;5953;52.372;9.918;2023-02-28T11:22:27;102378.00;;;10.90
11792;BMP180;5953;52.372;9.918;2023-02-28T11:25:00;102382.00;;;10.70
11792;BMP180;5953;52.372;9.918;2023-02-28T11:27:46;102375.00;;;10.90
11792;BMP180;5953;52.372;9.918;2023-02-28T11:30:32;102387.00;;;10.90
11792;BMP180;5953;52.372;9.918;2023-02-28T11:33:21;102374.00;;;10.70
11792;BMP180;5953;52.372;9.918;2023-02-28T11:35:53;102365.00;;;10.80
11792;BMP180;5953;52.372;9.918;2023-02-28T11:38:25;102361.00;;;10.80
11792;BMP180;5953;52.372;9.918;2023-02-28T11:41:11;102367.00;;;10.90
11792;BMP180;5953;52.372;9.918;2023-02-28T11:43:56;102352.00;;;11.00
11792;BMP180;5953;52.372;9.918;2023-02-28T11:46:33;102371.00;;;10.70
11792;BMP180;5953;52.372;9.918;2023-02-28T11:49:15;102374.00;;;10.70
11792;BMP180;5953;52.372;9.918;2023-02-28T11:51:53;102326.00;;;10.70
11792;BMP180;5953;52.372;9.918;2023-02-28T11:54:35;102375.00;;;10.80
11792;BMP180;5953;52.372;9.918;2023-02-28T11:57:19;102327.00;;;10.80
11792;BMP180;5953;52.372;9.918;2023-02-28T11:59:59;102371.00;;;10.90
11792;BMP180;5953;52.372;9.918;2023-02-28T12:02:37;102376.00;;;11.10
11792;BMP180;5953;52.372;9.918;2023-02-28T12:05:23;102348.00;;;11.10
11792;BMP180;5953;52.372;9.918;2023-02-28T12:08:02;102348.00;;;11.00
11792;BMP180;5953;52.372;9.918;2023-02-28T12:10:38;102353.00;;;10.90
11792;BMP180;5953;52.372;9.918;2023-02-28T12:13:18;102338.00;;;10.70
11792;BMP180;5953;52.372;9.918;2023-02-28T12:16:18;102342.00;;;10.80
11792;BMP180;5953;52.372;9.918;2023-02-28T12:19:03;102314.00;;;10.70
11792;BMP180;5953;52.372;9.918;2023-02-28T12:21:45;102295.00;;;10.80
11792;BMP180;5953;52.372;9.918;2023-02-28T12:24:28;102343.00;;;10.70
11792;BMP180;5953;52.372;9.918;2023-02-28T12:27:00;102348.00;;;10.80
11792;BMP180;5953;52.372;9.918;2023-02-28T12:29:43;102346.00;;;10.80
11792;BMP180;5953;52.372;9.918;2023-02-28T12:32:18;102316.00;;;10.90
11792;BMP180;5953;52.372;9.918;2023-02-28T12:34:52;102338.00;;;11.20
11792;BMP180;5953;52.372;9.918;2023-02-28T12:37:26;102337.00;;;10.90
11792;BMP180;5953;52.372;9.918;2023-02-28T12:40:00;102308.00;;;10.70
11792;BMP180;5953;52.372;9.918;2023-02-28T12:42:34;102293.00;;;10.50
11792;BMP180;5953;52.372;9.918;2023-02-28T12:45:10;102323.00;;;10.70
11792;BMP180;5953;52.372;9.918;2023-02-28T12:47:42;102348.00;;;10.80
11792;BMP180;5953;52.372;9.918;2023-02-28T12:50:14;102331.00;;;10.80
11792;BMP180;5953;52.372;9.918;2023-02-28T12:52:48;102278.00;;;11.10
11792;BMP180;5953;52.372;9.918;2023-02-28T12:55:22;102307.00;;;10.80
11792;BMP180;5953;52.372;9.918;2023-02-28T12:58:02;102283.00;;;11.00
11792;BMP180;5953;52.372;9.918;2023-02-28T13:00:36;102321.00;;;10.90
11792;BMP180;5953;52.372;9.918;2023-02-28T13:03:28;102312.00;;;10.90
11792;BMP180;5953;52.372;9.918;2023-02-28T13:06:27;102294.00;;;11.20
11792;BMP180;5953;52.372;9.918;2023-02-28T13:09:05;102295.00;;;11.00
11792;BMP180;5953;52.372;9.918;2023-02-28T13:11:40;102249.00;;;11.40
11792;BMP180;5953;52.372;9.918;2023-02-28T13:14:26;102283.00;;;11.30
11792;BMP180;5953;52.372;9.918;2023-02-28T13:17:02;102275.00;;;11.40
11792;BMP180;5953;52.372;9.918;2023-02-28T13:19:33;102270.00;;;11.30
11792;BMP180;5953;52.372;9.918;2023-02-28T13:22:16;102231.00;;;11.60
11792;BMP180;5953;52.372;9.918;2023-02-28T13:24:54;102234.00;;;11.70
11792;BMP180;5953;52.372;9.918;2023-02-28T13:27:35;102246.00;;;11.90
11792;BMP180;5953;52.372;9.918;2023-02-28T13:33:30;102284.00;;;11.70
11792;BMP180;5953;52.372;9.918;2023-02-28T13:36:10;102278.00;;;11.70
11792;BMP180;5953;52.372;9.918;2023-02-28T13:38:40;102253.00;;;11.50
11792;BMP180;5953;52.372;9.918;2023-02-28T13:44:23;102255.00;;;11.90
11792;BMP180;5953;52.372;9.918;2023-02-28T13:47:22;102264.00;;;12.00
11792;BMP180;5953;52.372;9.918;2023-02-28T13:49:53;102264.00;;;11.80
11792;BMP180;5953;52.372;9.918;2023-02-28T13:52:23;102226.00;;;11.70
11792;BMP180;5953;52.372;9.918;2023-02-28T13:55:15;102246.00;;;11.80
11792;BMP180;5953;52.372;9.918;2023-02-28T13:58:08;102273.00;;;11.80
11792;BMP180;5953;52.372;9.918;2023-02-28T14:00:58;102244.00;;;11.90
11792;BMP180;5953;52.372;9.918;2023-02-28T14:03:44;102271.00;;;12.10
11792;BMP180;5953;52.372;9.918;2023-02-28T14:06:22;102275.00;;;12.10
11792;BMP180;5953;52.372;9.918;2023-02-28T14:08:55;102233.00;;;12.00
11792;BMP180;5953;52.372;9.918;2023-02-28T14:11:28;102257.00;;;11.80
11792;BMP180;5953;52.372;9.918;2023-02-28T14:13:56;102243.00;;;11.60
11792;BMP180;5953;52.372;9.918;2023-02-28T14:16:26;102239.00;;;11.70
11792;BMP180;5953;52.372;9.918;2023-02-28T14:19:00;102242.00;;;12.00
11792;BMP180;5953;52.372;9.918;2023-02-28T14:21:33;102267.00;;;11.80
11792;BMP180;5953;52.372;9.918;2023-02-28T14:24:23;102270.00;;;12.20
11792;BMP180;5953;52.372;9.918;2023-02-28T14:33:08;102225.00;;;11.90
11792;BMP180;5953;52.372;9.918;2023-02-28T14:38:46;102263.00;;;11.70
11792;BMP180;5953;52.372;9.918;2023-02-28T14:41:20;102249.00;;;11.80
11792;BMP180;5953;52.372;9.918;2023-02-28T14:43:54;102250.00;;;11.60
11792;BMP180;5953;52.372;9.918;2023-02-28T14:46:28;102243.00;;;11.80
11792;BMP180;5953;52.372;9.918;2023-02-28T14:48:58;102237.00;;;11.80
11792;BMP180;5953;52.372;9.918;2023-02-28T14:51:26;102249.00;;;11.60
11792;BMP180;5953;52.372;9.918;2023-02-28T14:53:59;102265.00;;;11.40
11792;BMP180;5953;52.372;9.918;2023-02-28T14:56:32;102248.00;;;11.20
11792;BMP180;5953;52.372;9.918;2023-02-28T14:59:01;102227.00;;;11.30
11792;BMP180;5953;52.372;9.918;2023-02-28T15:01:29;102241.00;;;11.10
11792;BMP180;5953;52.372;9.918;2023-02-28T15:04:04;102250.00;;;11.30
11792;BMP180;5953;52.372;9.918;2023-02-28T15:06:33;102257.00;;;11.20
11792;BMP180;5953;52.372;9.918;2023-02-28T15:09:15;102259.00;;;11.30
11792;BMP180;5953;52.372;9.918;2023-02-28T15:11:46;102239.00;;;11.20
11792;BMP180;5953;52.372;9.918;2023-02-28T15:14:17;102223.00;;;11.20
11792;BMP180;5953;52.372;9.918;2023-02-28T15:16:51;102256.00;;;11.00
11792;BMP180;5953;52.372;9.918;2023-02-28T15:19:23;102219.00;;;11.00